Time;durP1;ratioP1;P1;durP2;ratioP2;P2;SDS_P1;SDS_P2;PMS_P1;PMS_P2;Temp;Humidity;BMP_temperature;BMP_pressure;BME280_temperature;BME280_humidity;BME280_pressure;Samples;Min_cycle;Max_cycle;Signal;HPM_P1;HPM_P2
2023/07/04 00:01:41;;;;;;;;;;;;;;;;;;4970878;28;19930;-89
2023/07/04 00:04:11;;;;;;;;;;;;;;;;;;4954664;28;19933;-89
2023/07/04 00:06:39;;;;;;;;;;;;;;;;;;4974369;28;19930;-89
2023/07/04 00:09:07;;;;;;;;;;;;;;;;;;4972353;28;19926;-91
2023/07/04 00:11:35;;;;;;;;;;;;;;;;;;4962718;28;19926;-86
2023/07/04 00:14:03;;;;;;;;;;;;;;;;;;4973064;28;20295;-91
2023/07/04 00:16:30;;;;;;;;;;;;;;;;;;4957767;28;19933;-92
2023/07/04 00:18:58;;;;;;;;;;;;;;;;;;4954588;28;19933;-90
2023/07/04 00:21:26;;;;;;;;;;;;;;;;;;4961046;28;19950;-91
2023/07/04 00:23:53;;;;;;;;;;;;;;;;;;4958491;28;20462;-90
2023/07/04 00:26:21;;;;;;;;;;;;;;;;;;4954823;28;20409;-88
2023/07/04 00:28:48;;;;;;;;;;;;;;;;;;4953825;29;20383;-90
2023/07/04 00:31:16;;;;;;;;;;;;;;;;;;4954919;28;19940;-91
2023/07/04 00:33:47;;;;;;;;;;;;;;;;;;4958485;28;19937;-90
2023/07/04 00:36:16;;;;;;;;;;;;;;;;;;4958184;28;19926;-90
2023/07/04 00:38:44;;;;;;;;;;;;;;;;;;4975725;28;19933;-89
2023/07/04 00:41:13;;;;;;;;;;;;;;;;;;4969922;28;20298;-90
2023/07/04 00:43:40;;;;;;;;;;;;;;;;;;4953643;28;19937;-89
2023/07/04 00:46:08;;;;;;;;;;;;;;;;;;4964088;28;20621;-88
2023/07/04 00:48:41;;;;;;;;;;;;;;;;;;4950513;28;19930;-88
2023/07/04 00:51:09;;;;;;;;;;;;;;;;;;4975160;28;19926;-90
2023/07/04 00:53:37;;;;;;;;;;;;;;;;;;4966455;28;20314;-87
2023/07/04 00:56:10;;;;;;;;;;;;;;;;;;4970773;28;19941;-90
2023/07/04 00:58:37;;;;;;;;;;;;;;;;;;4950023;28;19949;-87
2023/07/04 01:01:05;;;;;;;;;;;;;;;;;;4969204;28;20910;-88
2023/07/04 01:03:34;;;;;;;;;;;;;;;;;;4975677;28;19926;-89
2023/07/04 01:06:02;;;;;;;;;;;;;;;;;;4968334;28;19934;-88
2023/07/04 01:08:31;;;;;;;;;;;;;;;;;;4972379;28;19934;-87
2023/07/04 01:11:04;;;;;;;;;;;;;;;;;;4953711;28;19934;-87
2023/07/04 01:13:34;;;;;;;;;;;;;;;;;;4969053;28;20399;-87
2023/07/04 01:16:02;;;;;;;;;;;;;;;;;;4961991;28;19930;-86
2023/07/04 01:18:30;;;;;;;;;;;;;;;;;;4958623;28;20413;-86
2023/07/04 01:20:58;;;;;;;;;;;;;;;;;;4955944;28;19959;-89
2023/07/04 01:23:26;;;;;;;;;;;;;;;;;;4965923;28;19930;-86
2023/07/04 01:25:54;;;;;;;;;;;;;;;;;;4970927;28;20304;-86
2023/07/04 01:28:22;;;;;;;;;;;;;;;;;;4979771;28;19926;-87
2023/07/04 01:30:51;;;;;;;;;;;;;;;;;;4974651;28;19941;-89
2023/07/04 01:33:20;;;;;;;;;;;;;;;;;;4958469;28;19930;-84
2023/07/04 01:35:48;;;;;;;;;;;;;;;;;;4948855;28;19934;-86
2023/07/04 01:38:16;;;;;;;;;;;;;;;;;;4948755;28;19933;-85
2023/07/04 01:40:43;;;;;;;;;;;;;;;;;;4970970;28;19930;-86
2023/07/04 01:43:11;;;;;;;;;;;;;;;;;;4971103;28;20737;-86
2023/07/04 01:45:38;;;;;;;;;;;;;;;;;;4955145;28;19926;-85
2023/07/04 01:48:11;;;;;;;;;;;;;;;;;;4953579;28;19933;-85
2023/07/04 01:50:39;;;;;;;;;;;;;;;;;;4964215;28;19942;-85
2023/07/04 01:53:07;;;;;;;;;;;;;;;;;;4952931;28;19930;-86
2023/07/04 01:55:34;;;;;;;;;;;;;;;;;;4951869;28;19933;-87
2023/07/04 01:58:02;;;;;;;;;;;;;;;;;;4954280;28;20745;-85
2023/07/04 02:00:34;;;;;;;;;;;;;;;;;;4972352;28;19942;-86
2023/07/04 02:03:07;;;;;;;;;;;;;;;;;;4960003;28;19930;-86
2023/07/04 02:05:39;;;;;;;;;;;;;;;;;;4951131;28;19934;-86
2023/07/04 02:08:08;;;;;;;;;;;;;;;;;;4954818;28;19926;-86
2023/07/04 02:10:36;;;;;;;;;;;;;;;;;;4956022;28;19931;-87
2023/07/04 02:13:04;;;;;;;;;;;;;;;;;;4954728;28;19934;-84
2023/07/04 02:15:32;;;;;;;;;;;;;;;;;;4959648;28;19937;-86
2023/07/04 02:18:00;;;;;;;;;;;;;;;;;;4954806;28;19930;-86
2023/07/04 02:20:27;;;;;;;;;;;;;;;;;;4969840;28;19927;-85
2023/07/04 02:22:55;;;;;;;;;;;;;;;;;;4955435;28;20299;-86
2023/07/04 02:25:22;;;;;;;;;;;;;;;;;;4955216;28;19926;-85
2023/07/04 02:27:55;;;;;;;;;;;;;;;;;;4955189;28;19930;-86
2023/07/04 02:30:22;;;;;;;;;;;;;;;;;;4972963;28;20383;-85
2023/07/04 02:32:50;;;;;;;;;;;;;;;;;;4955427;28;19930;-85
2023/07/04 02:35:18;;;;;;;;;;;;;;;;;;4954709;28;19953;-86
2023/07/04 02:37:46;;;;;;;;;;;;;;;;;;4949877;28;20290;-87
2023/07/04 02:40:14;;;;;;;;;;;;;;;;;;4960314;28;19930;-87
2023/07/04 02:42:42;;;;;;;;;;;;;;;;;;4950366;28;20379;-85
2023/07/04 02:45:10;;;;;;;;;;;;;;;;;;4971851;28;19941;-87
2023/07/04 02:47:38;;;;;;;;;;;;;;;;;;4959726;28;19930;-85
2023/07/04 02:50:09;;;;;;;;;;;;;;;;;;4950591;28;19945;-86
2023/07/04 02:52:37;;;;;;;;;;;;;;;;;;4963246;28;19933;-86
2023/07/04 02:55:05;;;;;;;;;;;;;;;;;;4952188;28;20314;-87
2023/07/04 02:57:34;;;;;;;;;;;;;;;;;;4953440;28;20379;-86
2023/07/04 03:00:06;;;;;;;;;;;;;;;;;;4954866;28;19926;-87
2023/07/04 03:02:35;;;;;;;;;;;;;;;;;;4968190;28;19937;-87
2023/07/04 03:05:03;;;;;;;;;;;;;;;;;;4947346;28;19941;-88
2023/07/04 03:07:33;;;;;;;;;;;;;;;;;;4955473;28;19933;-87
2023/07/04 03:10:00;;;;;;;;;;;;;;;;;;4954716;28;19937;-86
2023/07/04 03:12:29;;;;;;;;;;;;;;;;;;4954933;28;19953;-85
2023/07/04 03:14:58;;;;;;;;;;;;;;;;;;4954139;28;19926;-86
2023/07/04 03:17:27;;;;;;;;;;;;;;;;;;4955953;28;19930;-85
2023/07/04 03:19:54;;;;;;;;;;;;;;;;;;4952152;28;19969;-86
2023/07/04 03:22:22;;;;;;;;;;;;;;;;;;4958454;28;20276;-85
2023/07/04 03:24:55;;;;;;;;;;;;;;;;;;4961044;28;19944;-86
2023/07/04 03:27:23;;;;;;;;;;;;;;;;;;4956807;28;20401;-87
2023/07/04 03:29:50;;;;;;;;;;;;;;;;;;4948817;28;19930;-85
2023/07/04 03:32:18;;;;;;;;;;;;;;;;;;4965448;28;19930;-86
2023/07/04 03:34:46;;;;;;;;;;;;;;;;;;4962242;28;20394;-85
2023/07/04 03:37:13;;;;;;;;;;;;;;;;;;4964914;28;19930;-86
2023/07/04 03:39:46;;;;;;;;;;;;;;;;;;4974255;28;20710;-84
2023/07/04 03:42:14;;;;;;;;;;;;;;;;;;4958929;28;20670;-87
2023/07/04 03:44:42;;;;;;;;;;;;;;;;;;4969905;28;19953;-87
2023/07/04 03:47:09;;;;;;;;;;;;;;;;;;4957520;28;19930;-86
2023/07/04 03:49:42;;;;;;;;;;;;;;;;;;4967391;28;19926;-86
2023/07/04 03:52:12;;;;;;;;;;;;;;;;;;4970396;28;19934;-86
2023/07/04 03:54:44;;;;;;;;;;;;;;;;;;4949410;28;20298;-83
2023/07/04 03:57:12;;;;;;;;;;;;;;;;;;4968518;28;19942;-84
2023/07/04 03:59:40;;;;;;;;;;;;;;;;;;4957975;28;19930;-84
2023/07/04 04:02:07;;;;;;;;;;;;;;;;;;4967455;28;20601;-85
2023/07/04 04:04:38;;;;;;;;;;;;;;;;;;4959038;28;19934;-83
2023/07/04 04:07:07;;;;;;;;;;;;;;;;;;4958632;28;20298;-85
2023/07/04 04:09:35;;;;;;;;;;;;;;;;;;4954638;28;19926;-86
2023/07/04 04:12:02;;;;;;;;;;;;;;;;;;4954547;28;19933;-87
2023/07/04 04:14:30;;;;;;;;;;;;;;;;;;4955709;28;19934;-86
2023/07/04 04:16:57;;;;;;;;;;;;;;;;;;4973005;28;19934;-84
2023/07/04 04:19:25;;;;;;;;;;;;;;;;;;4952696;28;19927;-85
2023/07/04 04:21:52;;;;;;;;;;;;;;;;;;4951647;29;19927;-86
2023/07/04 04:24:20;;;;;;;;;;;;;;;;;;4967981;28;19927;-84
2023/07/04 04:26:47;;;;;;;;;;;;;;;;;;4956524;28;19926;-85
2023/07/04 04:29:15;;;;;;;;;;;;;;;;;;4957975;28;19926;-84
2023/07/04 04:31:46;;;;;;;;;;;;;;;;;;4956641;28;19938;-84
2023/07/04 04:34:13;;;;;;;;;;;;;;;;;;4947925;28;19952;-86
2023/07/04 04:36:41;;;;;;;;;;;;;;;;;;4952360;28;19937;-87
2023/07/04 04:39:08;;;;;;;;;;;;;;;;;;4952763;28;19941;-86
2023/07/04 04:41:37;;;;;;;;;;;;;;;;;;4948601;28;20306;-88
2023/07/04 04:44:05;;;;;;;;;;;;;;;;;;4968134;28;19930;-85
2023/07/04 04:46:32;;;;;;;;;;;;;;;;;;4959928;28;19937;-88
2023/07/04 04:49:02;;;;;;;;;;;;;;;;;;4957228;28;22337;-86
2023/07/04 04:51:30;;;;;;;;;;;;;;;;;;4953008;28;19934;-87
2023/07/04 04:53:57;;;;;;;;;;;;;;;;;;4959030;28;19941;-86
2023/07/04 04:56:25;;;;;;;;;;;;;;;;;;4974855;28;20272;-88
2023/07/04 04:58:52;;;;;;;;;;;;;;;;;;4965875;28;20416;-87
2023/07/04 05:01:21;;;;;;;;;;;;;;;;;;4969908;28;19931;-86
2023/07/04 05:03:48;;;;;;;;;;;;;;;;;;4967482;28;20457;-86
2023/07/04 05:06:16;;;;;;;;;;;;;;;;;;4964771;28;19934;-85
2023/07/04 05:08:44;;;;;;;;;;;;;;;;;;4952587;28;19941;-86
2023/07/04 05:11:13;;;;;;;;;;;;;;;;;;4965598;28;19925;-84
2023/07/04 05:13:40;;;;;;;;;;;;;;;;;;4966592;28;19930;-85
2023/07/04 05:16:08;;;;;;;;;;;;;;;;;;4951665;28;19930;-84
2023/07/04 05:18:35;;;;;;;;;;;;;;;;;;4953336;28;19952;-85
2023/07/04 05:21:03;;;;;;;;;;;;;;;;;;4956565;28;20876;-87
2023/07/04 05:23:31;;;;;;;;;;;;;;;;;;4949415;28;20689;-87
2023/07/04 05:26:03;;;;;;;;;;;;;;;;;;4952035;28;19933;-84
2023/07/04 05:28:31;;;;;;;;;;;;;;;;;;4967690;28;19937;-85
2023/07/04 05:30:58;;;;;;;;;;;;;;;;;;4949886;28;20383;-84
2023/07/04 05:33:26;;;;;;;;;;;;;;;;;;4972495;28;20398;-85
2023/07/04 05:35:53;;;;;;;;;;;;;;;;;;4962942;28;19930;-86
2023/07/04 05:38:21;;;;;;;;;;;;;;;;;;4968682;28;19922;-87
2023/07/04 05:40:48;;;;;;;;;;;;;;;;;;4953717;28;20294;-87
2023/07/04 05:43:16;;;;;;;;;;;;;;;;;;4951672;28;19937;-86
2023/07/04 05:45:44;;;;;;;;;;;;;;;;;;4967119;28;19930;-87
2023/07/04 05:48:11;;;;;;;;;;;;;;;;;;4971778;28;20483;-86
2023/07/04 05:50:39;;;;;;;;;;;;;;;;;;4960259;28;19930;-92
2023/07/04 05:53:07;;;;;;;;;;;;;;;;;;4968772;28;19930;-89
2023/07/04 05:55:35;;;;;;;;;;;;;;;;;;4972993;28;19941;-87
2023/07/04 05:58:02;;;;;;;;;;;;;;;;;;4960763;28;19957;-87
2023/07/04 06:00:30;;;;;;;;;;;;;;;;;;4968473;28;19968;-88
2023/07/04 06:02:57;;;;;;;;;;;;;;;;;;4957779;28;20294;-89
2023/07/04 06:05:25;;;;;;;;;;;;;;;;;;4954906;28;19937;-89
2023/07/04 06:07:53;;;;;;;;;;;;;;;;;;4968178;28;19930;-87
2023/07/04 06:10:21;;;;;;;;;;;;;;;;;;4953981;28;19933;-87
2023/07/04 06:12:49;;;;;;;;;;;;;;;;;;4969343;28;19926;-87
2023/07/04 06:15:22;;;;;;;;;;;;;;;;;;4957586;28;19934;-89
2023/07/04 06:17:50;;;;;;;;;;;;;;;;;;4952197;28;19927;-87
2023/07/04 06:20:22;;;;;;;;;;;;;;;;;;4970397;28;19926;-89
2023/07/04 06:22:50;;;;;;;;;;;;;;;;;;4961370;28;20386;-89
2023/07/04 06:25:18;;;;;;;;;;;;;;;;;;4967257;28;20298;-87
2023/07/04 06:27:45;;;;;;;;;;;;;;;;;;4968068;28;20382;-89
2023/07/04 06:30:13;;;;;;;;;;;;;;;;;;4972297;28;19926;-88
2023/07/04 06:32:40;;;;;;;;;;;;;;;;;;4969163;28;19933;-87
2023/07/04 06:35:08;;;;;;;;;;;;;;;;;;4971302;28;19926;-87
2023/07/04 06:37:35;;;;;;;;;;;;;;;;;;4971386;28;19937;-86
2023/07/04 06:40:03;;;;;;;;;;;;;;;;;;4951308;28;19926;-88
2023/07/04 06:42:31;;;;;;;;;;;;;;;;;;4964767;28;19929;-87
2023/07/04 06:45:00;;;;;;;;;;;;;;;;;;4970934;28;19930;-87
2023/07/04 06:47:48;;;;;;;;;;;;;;;;;;4973487;28;19930;-86
2023/07/04 06:50:29;;;;;;;;;;;;;;;;;;4969099;28;19934;-88
2023/07/04 06:52:57;;;;;;;;;;;;;;;;;;4968894;28;19934;-92
2023/07/04 06:55:24;;;;;;;;;;;;;;;;;;4965572;28;19933;-88
2023/07/04 06:57:52;;;;;;;;;;;;;;;;;;4970844;28;19926;-87
2023/07/04 07:00:19;;;;;;;;;;;;;;;;;;4951660;28;19942;-88
2023/07/04 07:02:47;;;;;;;;;;;;;;;;;;4952717;28;19926;-85
2023/07/04 07:05:17;;;;;;;;;;;;;;;;;;4967212;28;19930;-85
2023/07/04 07:07:44;;;;;;;;;;;;;;;;;;4951662;28;19938;-88
2023/07/04 07:10:12;;;;;;;;;;;;;;;;;;4967745;28;20279;-88
2023/07/04 07:12:39;;;;;;;;;;;;;;;;;;4951917;28;19934;-89
2023/07/04 07:15:07;;;;;;;;;;;;;;;;;;4950583;28;19930;-88
2023/07/04 07:17:34;;;;;;;;;;;;;;;;;;4968254;28;19929;-90
2023/07/04 07:20:07;;;;;;;;;;;;;;;;;;4965798;28;19934;-88
2023/07/04 07:22:35;;;;;;;;;;;;;;;;;;4967265;28;19949;-89
2023/07/04 07:25:02;;;;;;;;;;;;;;;;;;4957721;28;19926;-93
2023/07/04 07:27:30;;;;;;;;;;;;;;;;;;4951275;28;19930;-91
2023/07/04 07:29:58;;;;;;;;;;;;;;;;;;4950957;28;19937;-88
2023/07/04 07:32:25;;;;;;;;;;;;;;;;;;4970122;28;20382;-89
2023/07/04 07:34:53;;;;;;;;;;;;;;;;;;4965002;28;20437;-92
2023/07/04 07:37:23;;;;;;;;;;;;;;;;;;4927282;28;19934;-91
2023/07/04 07:39:51;;;;;;;;;;;;;;;;;;4924240;28;19958;-89
2023/07/04 07:42:18;;;;;;;;;;;;;;;;;;4922259;28;19934;-88
2023/07/04 07:44:46;;;;;;;;;;;;;;;;;;4926141;28;19941;-86
2023/07/04 07:47:14;;;;;;;;;;;;;;;;;;4923649;28;19937;-91
2023/07/04 07:49:41;;;;;;;;;;;;;;;;;;4941759;28;19935;-90
2023/07/04 07:52:09;;;;;;;;;;;;;;;;;;4944481;28;19942;-91
2023/07/04 07:54:36;;;;;;;;;;;;;;;;;;4928588;28;19934;-89
2023/07/04 07:57:07;;;;;;;;;;;;;;;;;;4930282;28;19931;-89
2023/07/04 07:59:35;;;;;;;;;;;;;;;;;;4940704;28;19934;-90
2023/07/04 08:02:03;;;;;;;;;;;;;;;;;;4932535;28;19935;-90
2023/07/04 08:04:30;;;;;;;;;;;;;;;;;;4959292;28;20574;-87
2023/07/04 08:06:58;;;;;;;;;;;;;;;;;;4938026;28;21398;-88
2023/07/04 08:09:25;;;;;;;;;;;;;;;;;;4943748;28;19933;-91
2023/07/04 08:11:54;;;;;;;;;;;;;;;;;;4942909;28;19942;-88
2023/07/04 08:14:21;;;;;;;;;;;;;;;;;;4948604;28;19957;-87
2023/07/04 08:16:54;;;;;;;;;;;;;;;;;;4927283;28;19941;-91
2023/07/04 08:19:23;;;;;;;;;;;;;;;;;;4946467;28;19941;-92
2023/07/04 08:21:50;;;;;;;;;;;;;;;;;;4933790;28;19945;-89
2023/07/04 08:24:18;;;;;;;;;;;;;;;;;;4933150;28;20983;-90
2023/07/04 08:26:45;;;;;;;;;;;;;;;;;;4929694;28;19941;-90
2023/07/04 08:29:13;;;;;;;;;;;;;;;;;;4952008;28;20401;-89
2023/07/04 08:31:41;;;;;;;;;;;;;;;;;;4925835;28;20401;-86
2023/07/04 08:34:09;;;;;;;;;;;;;;;;;;4924373;28;19934;-89
2023/07/04 08:36:37;;;;;;;;;;;;;;;;;;4941227;28;19934;-92
2023/07/04 08:39:07;;;;;;;;;;;;;;;;;;4929532;28;19934;-87
2023/07/04 08:41:34;;;;;;;;;;;;;;;;;;4928282;28;19939;-88
2023/07/04 08:44:02;;;;;;;;;;;;;;;;;;4929726;28;19934;-87
2023/07/04 08:46:29;;;;;;;;;;;;;;;;;;4946184;28;19935;-90
2023/07/04 08:48:57;;;;;;;;;;;;;;;;;;4948039;28;19942;-85
2023/07/04 08:51:25;;;;;;;;;;;;;;;;;;4949964;28;19934;-88
2023/07/04 08:53:53;;;;;;;;;;;;;;;;;;4938677;28;19934;-90
2023/07/04 08:56:21;;;;;;;;;;;;;;;;;;4929479;28;21049;-88
2023/07/04 08:58:48;;;;;;;;;;;;;;;;;;4933272;28;19941;-90
2023/07/04 09:01:16;;;;;;;;;;;;;;;;;;4928091;28;20313;-88
2023/07/04 09:03:44;;;;;;;;;;;;;;;;;;4950463;28;19930;-88
2023/07/04 09:06:11;;;;;;;;;;;;;;;;;;4945688;28;19941;-87
2023/07/04 09:08:39;;;;;;;;;;;;;;;;;;4924975;28;19934;-89
2023/07/04 09:11:07;;;;;;;;;;;;;;;;;;4944735;28;20005;-92
2023/07/04 09:13:35;;;;;;;;;;;;;;;;;;4934844;28;20187;-86
2023/07/04 09:16:03;;;;;;;;;;;;;;;;;;4946669;28;19934;-91
2023/07/04 09:18:31;;;;;;;;;;;;;;;;;;4942077;28;20317;-89
2023/07/04 09:20:58;;;;;;;;;;;;;;;;;;4950099;28;19941;-91
2023/07/04 09:23:26;;;;;;;;;;;;;;;;;;4933153;28;19941;-91
2023/07/04 09:25:54;;;;;;;;;;;;;;;;;;4935774;28;19953;-92
2023/07/04 09:28:21;;;;;;;;;;;;;;;;;;4927328;28;20909;-89
2023/07/04 09:30:49;;;;;;;;;;;;;;;;;;4918045;28;19934;-88
2023/07/04 09:33:17;;;;;;;;;;;;;;;;;;4919334;28;19935;-88
2023/07/04 09:35:44;;;;;;;;;;;;;;;;;;4916812;28;20307;-89
2023/07/04 09:38:12;;;;;;;;;;;;;;;;;;4941940;28;20480;-89
2023/07/04 09:40:39;;;;;;;;;;;;;;;;;;4918057;28;19934;-87
2023/07/04 09:43:07;;;;;;;;;;;;;;;;;;4919605;28;19934;-89
2023/07/04 09:45:38;;;;;;;;;;;;;;;;;;4913741;28;20375;-90
2023/07/04 09:48:05;;;;;;;;;;;;;;;;;;4914537;28;19934;-89
2023/07/04 09:50:33;;;;;;;;;;;;;;;;;;4924189;28;20616;-89
2023/07/04 09:53:00;;;;;;;;;;;;;;;;;;4916233;28;20206;-91
2023/07/04 09:55:28;;;;;;;;;;;;;;;;;;4928002;28;20329;-89
2023/07/04 09:57:56;;;;;;;;;;;;;;;;;;4940135;28;20294;-90
2023/07/04 10:00:23;;;;;;;;;;;;;;;;;;4923349;28;19934;-89
2023/07/04 10:02:52;;;;;;;;;;;;;;;;;;4909993;28;19942;-89
2023/07/04 10:05:20;;;;;;;;;;;;;;;;;;4934248;28;19931;-90
2023/07/04 10:07:47;;;;;;;;;;;;;;;;;;4923260;28;20068;-88
2023/07/04 10:10:16;;;;;;;;;;;;;;;;;;4919607;28;19946;-87
2023/07/04 10:12:44;;;;;;;;;;;;;;;;;;4915348;28;19934;-89
2023/07/04 10:15:13;;;;;;;;;;;;;;;;;;4916776;28;20338;-88
2023/07/04 10:17:41;;;;;;;;;;;;;;;;;;4925941;28;20678;-90
2023/07/04 10:20:10;;;;;;;;;;;;;;;;;;4922077;28;19954;-89
2023/07/04 10:22:41;;;;;;;;;;;;;;;;;;4927377;28;19957;-88
2023/07/04 10:25:08;;;;;;;;;;;;;;;;;;4934171;28;19931;-88
2023/07/04 10:27:36;;;;;;;;;;;;;;;;;;4924565;28;19941;-86
2023/07/04 10:30:09;;;;;;;;;;;;;;;;;;4944861;28;19941;-88
2023/07/04 10:32:37;;;;;;;;;;;;;;;;;;4947504;28;20305;-87
2023/07/04 10:35:04;;;;;;;;;;;;;;;;;;4929038;28;20441;-86
2023/07/04 10:37:32;;;;;;;;;;;;;;;;;;4911994;28;19945;-84
2023/07/04 10:39:59;;;;;;;;;;;;;;;;;;4944408;28;19957;-86
2023/07/04 10:42:27;;;;;;;;;;;;;;;;;;4934765;28;19930;-88
2023/07/04 10:44:55;;;;;;;;;;;;;;;;;;4944049;28;19934;-89
2023/07/04 10:47:22;;;;;;;;;;;;;;;;;;4931630;28;19934;-91
2023/07/04 10:49:50;;;;;;;;;;;;;;;;;;4929370;28;20310;-89
2023/07/04 10:52:17;;;;;;;;;;;;;;;;;;4922382;28;20124;-89
2023/07/04 10:54:45;;;;;;;;;;;;;;;;;;4937228;28;19934;-87
2023/07/04 10:57:13;;;;;;;;;;;;;;;;;;4924085;28;19945;-89
2023/07/04 10:59:40;;;;;;;;;;;;;;;;;;4920949;28;19935;-88
2023/07/04 11:02:08;;;;;;;;;;;;;;;;;;4916042;28;20492;-89
2023/07/04 11:04:36;;;;;;;;;;;;;;;;;;4929542;28;19935;-88
2023/07/04 11:07:04;;;;;;;;;;;;;;;;;;4927354;28;20406;-86
2023/07/04 11:09:33;;;;;;;;;;;;;;;;;;4921755;28;19934;-89
2023/07/04 11:12:01;;;;;;;;;;;;;;;;;;4922210;28;19934;-88
2023/07/04 11:14:28;;;;;;;;;;;;;;;;;;4912957;28;20464;-89
2023/07/04 11:16:56;;;;;;;;;;;;;;;;;;4932437;28;19930;-87
2023/07/04 11:19:25;;;;;;;;;;;;;;;;;;4909152;28;19968;-87
2023/07/04 11:21:55;;;;;;;;;;;;;;;;;;4909439;28;20429;-87
2023/07/04 11:24:24;;;;;;;;;;;;;;;;;;4925937;28;19940;-88
2023/07/04 11:26:53;;;;;;;;;;;;;;;;;;4947086;28;19934;-88
2023/07/04 11:29:20;;;;;;;;;;;;;;;;;;4924810;28;19936;-87
2023/07/04 11:31:48;;;;;;;;;;;;;;;;;;4943753;28;19941;-88
2023/07/04 11:34:16;;;;;;;;;;;;;;;;;;4935826;28;19927;-88
2023/07/04 11:36:45;;;;;;;;;;;;;;;;;;4907490;28;21122;-87
2023/07/04 11:39:15;;;;;;;;;;;;;;;;;;4923325;28;19934;-87
2023/07/04 11:41:42;;;;;;;;;;;;;;;;;;4939010;28;19934;-88
2023/07/04 11:44:12;;;;;;;;;;;;;;;;;;4944993;28;19989;-89
2023/07/04 11:46:40;;;;;;;;;;;;;;;;;;4930754;28;19930;-87
2023/07/04 11:49:08;;;;;;;;;;;;;;;;;;4939725;28;19950;-88
2023/07/04 11:51:35;;;;;;;;;;;;;;;;;;4946118;28;19930;-90
2023/07/04 11:54:04;;;;;;;;;;;;;;;;;;4944040;28;19941;-88
2023/07/04 11:56:31;;;;;;;;;;;;;;;;;;4941868;28;19942;-86
2023/07/04 11:58:59;;;;;;;;;;;;;;;;;;4947900;28;20294;-85
2023/07/04 12:01:32;;;;;;;;;;;;;;;;;;4929974;28;19956;-91
2023/07/04 12:04:00;;;;;;;;;;;;;;;;;;4925770;28;19960;-87
2023/07/04 12:06:28;;;;;;;;;;;;;;;;;;4927958;28;19934;-85
2023/07/04 12:08:56;;;;;;;;;;;;;;;;;;4927674;28;19926;-86
2023/07/04 12:11:29;;;;;;;;;;;;;;;;;;4930412;28;19933;-88
2023/07/04 12:13:57;;;;;;;;;;;;;;;;;;4945525;28;20299;-87
2023/07/04 12:16:24;;;;;;;;;;;;;;;;;;4924470;28;19938;-85
2023/07/04 12:18:52;;;;;;;;;;;;;;;;;;4923916;28;21850;-88
2023/07/04 12:21:20;;;;;;;;;;;;;;;;;;4930791;28;19938;-88
2023/07/04 12:23:48;;;;;;;;;;;;;;;;;;4948308;28;19926;-86
2023/07/04 12:26:15;;;;;;;;;;;;;;;;;;4947255;28;20869;-87
2023/07/04 12:28:45;;;;;;;;;;;;;;;;;;4929205;28;20480;-88
2023/07/04 12:31:14;;;;;;;;;;;;;;;;;;4946370;28;21411;-88
2023/07/04 12:33:44;;;;;;;;;;;;;;;;;;4930529;28;19934;-88
2023/07/04 12:36:12;;;;;;;;;;;;;;;;;;4906757;28;20728;-87
2023/07/04 12:38:40;;;;;;;;;;;;;;;;;;4931875;28;19946;-87
2023/07/04 12:41:07;;;;;;;;;;;;;;;;;;4947617;28;19934;-85
2023/07/04 12:43:35;;;;;;;;;;;;;;;;;;4934190;28;19935;-87
2023/07/04 12:46:03;;;;;;;;;;;;;;;;;;4933340;28;20402;-88
2023/07/04 12:48:35;;;;;;;;;;;;;;;;;;4950290;28;19934;-89
2023/07/04 12:51:03;;;;;;;;;;;;;;;;;;4946106;28;19934;-88
2023/07/04 12:53:31;;;;;;;;;;;;;;;;;;4933009;28;20395;-88
2023/07/04 12:55:58;;;;;;;;;;;;;;;;;;4928972;28;19934;-88
2023/07/04 12:58:31;;;;;;;;;;;;;;;;;;4949093;28;19934;-89
2023/07/04 13:01:02;;;;;;;;;;;;;;;;;;4927235;28;20310;-88
2023/07/04 13:03:30;;;;;;;;;;;;;;;;;;4947876;28;19981;-89
2023/07/04 13:05:57;;;;;;;;;;;;;;;;;;4932194;28;19945;-87
2023/07/04 13:08:25;;;;;;;;;;;;;;;;;;4949722;28;19934;-87
2023/07/04 13:10:53;;;;;;;;;;;;;;;;;;4942852;28;20600;-88
2023/07/04 13:13:20;;;;;;;;;;;;;;;;;;4942347;28;20408;-88
2023/07/04 13:15:48;;;;;;;;;;;;;;;;;;4944386;28;19937;-91
2023/07/04 13:18:16;;;;;;;;;;;;;;;;;;4942132;28;19941;-90
2023/07/04 13:20:43;;;;;;;;;;;;;;;;;;4927573;28;19934;-86
2023/07/04 13:23:11;;;;;;;;;;;;;;;;;;4945643;28;19934;-87
2023/07/04 13:25:39;;;;;;;;;;;;;;;;;;4928134;28;19934;-87
2023/07/04 13:28:12;;;;;;;;;;;;;;;;;;4928687;28;19949;-90
2023/07/04 13:30:47;;;;;;;;;;;;;;;;;;4941153;28;19934;-84
2023/07/04 13:33:15;;;;;;;;;;;;;;;;;;4942831;28;19934;-86
2023/07/04 13:35:43;;;;;;;;;;;;;;;;;;4939060;28;19945;-86
2023/07/04 13:38:11;;;;;;;;;;;;;;;;;;4915777;28;20032;-87
2023/07/04 13:40:48;;;;;;;;;;;;;;;;;;4935940;28;19934;-88
2023/07/04 13:43:16;;;;;;;;;;;;;;;;;;4921607;28;20303;-87
2023/07/04 13:45:48;;;;;;;;;;;;;;;;;;4921846;28;19930;-87
2023/07/04 13:48:16;;;;;;;;;;;;;;;;;;4924871;28;19934;-88
2023/07/04 13:50:44;;;;;;;;;;;;;;;;;;4927553;28;19937;-87
2023/07/04 13:53:11;;;;;;;;;;;;;;;;;;4924498;28;19945;-87
2023/07/04 13:55:44;;;;;;;;;;;;;;;;;;4934042;28;20658;-88
2023/07/04 13:58:11;;;;;;;;;;;;;;;;;;4931645;28;20753;-86
2023/07/04 14:00:39;;;;;;;;;;;;;;;;;;4942331;28;19935;-85
2023/07/04 14:03:07;;;;;;;;;;;;;;;;;;4923857;28;19934;-89
2023/07/04 14:05:34;;;;;;;;;;;;;;;;;;4924479;28;19934;-87
2023/07/04 14:08:07;;;;;;;;;;;;;;;;;;4938039;28;19942;-89
2023/07/04 14:10:35;;;;;;;;;;;;;;;;;;4923922;28;19934;-86
2023/07/04 14:13:03;;;;;;;;;;;;;;;;;;4940258;28;19942;-87
2023/07/04 14:15:31;;;;;;;;;;;;;;;;;;4925515;28;19934;-84
2023/07/04 14:18:02;;;;;;;;;;;;;;;;;;4930376;28;19934;-86
2023/07/04 14:20:29;;;;;;;;;;;;;;;;;;4944145;28;19934;-86
2023/07/04 14:22:57;;;;;;;;;;;;;;;;;;4952087;28;19934;-87
2023/07/04 14:25:30;;;;;;;;;;;;;;;;;;4923745;28;19934;-86
2023/07/04 14:27:57;;;;;;;;;;;;;;;;;;4941059;28;19957;-86
2023/07/04 14:30:25;;;;;;;;;;;;;;;;;;4925448;28;19934;-93
2023/07/04 14:32:53;;;;;;;;;;;;;;;;;;4946746;28;20314;-91
2023/07/04 14:35:20;;;;;;;;;;;;;;;;;;4926587;28;20299;-90
2023/07/04 14:37:50;;;;;;;;;;;;;;;;;;4903232;28;20287;-87
2023/07/04 14:40:25;;;;;;;;;;;;;;;;;;4937254;28;19930;-89
2023/07/04 14:42:53;;;;;;;;;;;;;;;;;;4941915;28;20584;-90
2023/07/04 14:45:20;;;;;;;;;;;;;;;;;;4922552;28;19934;-86
2023/07/04 14:47:48;;;;;;;;;;;;;;;;;;4937046;28;19946;-88
2023/07/04 14:50:16;;;;;;;;;;;;;;;;;;4947529;28;20443;-89
2023/07/04 14:52:43;;;;;;;;;;;;;;;;;;4937608;28;19934;-87
2023/07/04 14:55:11;;;;;;;;;;;;;;;;;;4943659;28;19935;-87
2023/07/04 14:57:39;;;;;;;;;;;;;;;;;;4942274;28;19952;-87
2023/07/04 15:00:06;;;;;;;;;;;;;;;;;;4925180;28;19934;-88
2023/07/04 15:02:34;;;;;;;;;;;;;;;;;;4946643;28;20011;-85
2023/07/04 15:05:02;;;;;;;;;;;;;;;;;;4920475;28;20935;-88
2023/07/04 15:07:29;;;;;;;;;;;;;;;;;;4942583;28;19945;-87
2023/07/04 15:09:57;;;;;;;;;;;;;;;;;;4942885;28;19941;-87
2023/07/04 15:12:25;;;;;;;;;;;;;;;;;;4937251;28;19934;-88
2023/07/04 15:14:53;;;;;;;;;;;;;;;;;;4934263;28;19935;-88
2023/07/04 15:17:20;;;;;;;;;;;;;;;;;;4943860;28;19934;-87
2023/07/04 15:19:48;;;;;;;;;;;;;;;;;;4925057;28;19938;-88
2023/07/04 15:22:16;;;;;;;;;;;;;;;;;;4922077;28;19937;-88
2023/07/04 15:24:43;;;;;;;;;;;;;;;;;;4926633;28;19935;-87
2023/07/04 15:27:13;;;;;;;;;;;;;;;;;;4928943;28;19938;-87
2023/07/04 15:29:41;;;;;;;;;;;;;;;;;;4945841;28;20525;-87
2023/07/04 15:32:08;;;;;;;;;;;;;;;;;;4926132;28;20295;-87
2023/07/04 15:34:36;;;;;;;;;;;;;;;;;;4925923;28;19941;-87
2023/07/04 15:37:04;;;;;;;;;;;;;;;;;;4915552;28;19926;-87
2023/07/04 15:39:31;;;;;;;;;;;;;;;;;;4935079;28;19934;-88
2023/07/04 15:41:59;;;;;;;;;;;;;;;;;;4939894;28;19934;-88
2023/07/04 15:44:27;;;;;;;;;;;;;;;;;;4925727;28;19934;-88
2023/07/04 15:46:55;;;;;;;;;;;;;;;;;;4930460;28;19935;-88
2023/07/04 15:49:23;;;;;;;;;;;;;;;;;;4925789;28;19942;-91
2023/07/04 15:51:54;;;;;;;;;;;;;;;;;;4928918;28;19934;-88
2023/07/04 15:54:21;;;;;;;;;;;;;;;;;;4924890;28;19950;-91
2023/07/04 15:56:49;;;;;;;;;;;;;;;;;;4937557;28;19934;-88
2023/07/04 15:59:16;;;;;;;;;;;;;;;;;;4942635;28;19935;-88
2023/07/04 16:01:44;;;;;;;;;;;;;;;;;;4937330;28;19935;-88
2023/07/04 16:04:12;;;;;;;;;;;;;;;;;;4940821;28;19941;-88
2023/07/04 16:06:40;;;;;;;;;;;;;;;;;;4925393;28;19949;-89
2023/07/04 16:09:08;;;;;;;;;;;;;;;;;;4938768;28;19945;-87
2023/07/04 16:11:36;;;;;;;;;;;;;;;;;;4937403;28;19941;-88
2023/07/04 16:14:04;;;;;;;;;;;;;;;;;;4920793;28;19960;-87
2023/07/04 16:16:32;;;;;;;;;;;;;;;;;;4941944;28;19934;-89
2023/07/04 16:18:59;;;;;;;;;;;;;;;;;;4923257;28;19934;-87
2023/07/04 16:21:27;;;;;;;;;;;;;;;;;;4924981;28;19942;-89
2023/07/04 16:23:54;;;;;;;;;;;;;;;;;;4925211;28;19953;-88
2023/07/04 16:26:22;;;;;;;;;;;;;;;;;;4940159;28;20636;-87
2023/07/04 16:28:54;;;;;;;;;;;;;;;;;;4925303;28;19948;-89
2023/07/04 16:31:22;;;;;;;;;;;;;;;;;;4936167;28;20429;-87
2023/07/04 16:33:50;;;;;;;;;;;;;;;;;;4926705;28;19942;-88
2023/07/04 16:36:17;;;;;;;;;;;;;;;;;;4900221;28;19957;-88
2023/07/04 16:38:45;;;;;;;;;;;;;;;;;;4937952;28;19945;-88
2023/07/04 16:41:13;;;;;;;;;;;;;;;;;;4939308;28;19934;-89
2023/07/04 16:43:40;;;;;;;;;;;;;;;;;;4940723;28;19941;-88
2023/07/04 16:46:08;;;;;;;;;;;;;;;;;;4926155;28;19934;-89
2023/07/04 16:48:40;;;;;;;;;;;;;;;;;;4928923;28;20409;-87
2023/07/04 16:51:08;;;;;;;;;;;;;;;;;;4920199;28;19934;-88
2023/07/04 16:53:38;;;;;;;;;;;;;;;;;;4920253;28;19934;-88